createdAt,value
2017-07-23T00:01:25.152Z,5.50
2017-07-23T00:03:52.576Z,5.53
2017-07-23T00:06:20.027Z,5.93
2017-07-23T00:08:47.487Z,5.60
2017-07-23T00:11:14.923Z,5.43
2017-07-23T00:13:42.385Z,5.40
2017-07-23T00:16:09.791Z,6.20
2017-07-23T00:18:37.243Z,5.90
2017-07-23T00:21:04.680Z,6.07
2017-07-23T00:23:32.123Z,5.63
2017-07-23T00:25:59.563Z,5.87
2017-07-23T00:28:26.971Z,6.30
2017-07-23T00:30:54.481Z,6.10
2017-07-23T00:33:21.895Z,5.47
2017-07-23T00:35:49.381Z,5.70
2017-07-23T00:38:16.787Z,5.50
2017-07-23T00:40:44.262Z,5.83
2017-07-23T00:43:11.688Z,5.30
2017-07-23T00:45:39.131Z,5.93
2017-07-23T00:48:06.571Z,5.63
2017-07-23T00:50:33.974Z,5.17
2017-07-23T00:53:01.429Z,4.83
2017-07-23T00:55:28.859Z,5.07
2017-07-23T00:57:56.267Z,4.63
2017-07-23T01:00:24.170Z,4.60
2017-07-23T01:02:51.582Z,4.27
2017-07-23T01:05:18.995Z,4.43
2017-07-23T01:07:46.424Z,4.50
2017-07-23T01:10:13.835Z,4.50
2017-07-23T01:12:41.281Z,4.60
2017-07-23T01:15:08.703Z,4.40
2017-07-23T01:17:36.124Z,4.47
2017-07-23T01:20:04.282Z,4.37
2017-07-23T01:22:31.690Z,4.20
2017-07-23T01:24:59.137Z,4.40
2017-07-23T01:27:26.560Z,4.13
2017-07-23T01:29:53.962Z,4.30
2017-07-23T01:32:21.426Z,5.20
2017-07-23T01:34:48.872Z,4.40
2017-07-23T01:37:16.280Z,4.50
2017-07-23T01:39:43.715Z,4.20
2017-07-23T01:42:11.167Z,4.70
2017-07-23T01:44:38.567Z,4.40
2017-07-23T01:47:05.978Z,4.93
2017-07-23T01:49:33.412Z,4.60
2017-07-23T01:52:00.832Z,4.50
2017-07-23T01:54:28.268Z,4.53
2017-07-23T01:56:55.697Z,4.37
2017-07-23T01:59:23.116Z,5.03
2017-07-23T02:01:50.545Z,4.40
2017-07-23T02:04:17.961Z,4.43
2017-07-23T02:06:45.452Z,4.70
2017-07-23T02:09:12.867Z,5.10
2017-07-23T02:11:40.300Z,5.80
2017-07-23T02:14:07.728Z,4.63
2017-07-23T02:16:35.131Z,5.20
2017-07-23T02:19:02.568Z,5.10
2017-07-23T02:21:29.971Z,5.10
2017-07-23T02:23:58.081Z,5.37
2017-07-23T02:26:25.481Z,6.33
2017-07-23T02:28:52.909Z,6.57
2017-07-23T02:31:20.307Z,6.67
2017-07-23T02:33:47.795Z,6.73
2017-07-23T02:36:15.239Z,7.97
2017-07-23T02:38:42.643Z,6.67
2017-07-23T02:41:10.080Z,8.90
2017-07-23T02:43:37.526Z,7.37
2017-07-23T02:46:05.016Z,6.00
2017-07-23T02:48:32.420Z,7.50
2017-07-23T02:50:59.847Z,6.70
2017-07-23T02:53:27.673Z,7.37
2017-07-23T02:55:55.088Z,7.03
2017-07-23T02:58:22.497Z,7.60
2017-07-23T03:00:50.001Z,8.13
2017-07-23T03:03:17.439Z,7.20
2017-07-23T03:05:45.063Z,7.13
2017-07-23T03:08:12.498Z,7.50
2017-07-23T03:10:39.938Z,8.07
2017-07-23T03:13:07.358Z,6.60
2017-07-23T03:15:34.797Z,7.60
2017-07-23T03:18:02.212Z,6.47
2017-07-23T03:20:29.666Z,6.70
2017-07-23T03:22:57.075Z,8.10
2017-07-23T03:25:24.507Z,8.00
2017-07-23T03:27:51.962Z,7.47
2017-07-23T03:30:19.380Z,8.53
2017-07-23T03:32:46.792Z,7.23
2017-07-23T03:35:14.231Z,7.67
2017-07-23T03:37:41.644Z,7.60
2017-07-23T03:40:09.088Z,6.83
2017-07-23T03:42:36.511Z,6.90
2017-07-23T03:45:04.806Z,6.67
2017-07-23T03:47:32.215Z,6.57
2017-07-23T03:49:59.695Z,6.93
2017-07-23T03:52:27.255Z,6.30
2017-07-23T03:54:54.668Z,6.50
2017-07-23T03:57:22.095Z,7.13
2017-07-23T03:59:49.492Z,7.97
2017-07-23T04:02:16.934Z,6.53
2017-07-23T04:04:44.419Z,6.70
2017-07-23T04:07:11.839Z,6.60
2017-07-23T04:09:39.353Z,6.00
2017-07-23T04:12:06.824Z,6.10
2017-07-23T04:14:34.410Z,6.53
2017-07-23T04:17:01.815Z,6.47
2017-07-23T04:19:29.255Z,7.23
2017-07-23T04:21:56.749Z,6.33
2017-07-23T04:24:24.319Z,6.93
2017-07-23T04:26:51.732Z,6.93
2017-07-23T04:29:19.163Z,7.13
2017-07-23T04:31:46.599Z,7.10
2017-07-23T04:34:14.025Z,6.00
2017-07-23T04:36:41.448Z,6.10
2017-07-23T04:39:09.085Z,7.10
2017-07-23T04:41:36.511Z,6.80
2017-07-23T04:44:03.965Z,7.30
2017-07-23T04:46:31.386Z,8.70
2017-07-23T04:48:58.856Z,6.80
2017-07-23T04:51:26.281Z,7.87
2017-07-23T04:53:53.692Z,6.70
2017-07-23T04:56:21.207Z,6.10
2017-07-23T04:58:48.707Z,7.57
2017-07-23T05:01:16.297Z,7.07
2017-07-23T05:03:43.793Z,6.57
2017-07-23T05:06:11.522Z,6.03
2017-07-23T05:08:38.939Z,6.90
2017-07-23T05:11:06.348Z,7.27
2017-07-23T05:13:33.809Z,7.73
2017-07-23T05:16:01.235Z,7.90
2017-07-23T05:18:28.669Z,7.50
2017-07-23T05:20:56.073Z,7.40
2017-07-23T05:23:23.963Z,7.00
2017-07-23T05:25:51.367Z,6.20
2017-07-23T05:28:18.775Z,7.33
2017-07-23T05:30:46.265Z,7.23
2017-07-23T05:33:13.691Z,7.33
2017-07-23T05:35:41.103Z,7.00
2017-07-23T05:38:08.520Z,6.90
2017-07-23T05:40:36.056Z,7.47
2017-07-23T05:43:03.480Z,6.80
2017-07-23T05:45:30.910Z,7.07
2017-07-23T05:47:58.457Z,6.63
2017-07-23T05:50:25.916Z,6.00
2017-07-23T05:52:53.335Z,6.50
2017-07-23T05:55:20.755Z,6.10
2017-07-23T05:57:48.180Z,5.67
2017-07-23T06:00:15.592Z,5.30
2017-07-23T06:02:43.032Z,4.90
2017-07-23T06:05:10.447Z,4.37
2017-07-23T06:07:38.352Z,4.73
2017-07-23T06:10:05.839Z,4.33
2017-07-23T06:12:33.237Z,4.27
2017-07-23T06:15:00.676Z,5.17
2017-07-23T06:17:28.083Z,4.73
2017-07-23T06:19:55.511Z,4.80
2017-07-23T06:22:22.936Z,5.63
2017-07-23T06:24:50.395Z,5.60
2017-07-23T06:27:17.885Z,5.53
2017-07-23T06:29:45.793Z,6.07
2017-07-23T06:32:13.182Z,4.90
2017-07-23T06:34:40.671Z,5.10
2017-07-23T06:37:08.104Z,4.00
2017-07-23T06:39:35.628Z,4.13
2017-07-23T06:42:03.090Z,4.50
2017-07-23T06:44:30.520Z,4.93
2017-07-23T06:46:58.046Z,4.63
2017-07-23T06:49:25.466Z,3.80
2017-07-23T06:51:52.901Z,4.30
2017-07-23T06:54:20.454Z,5.00
2017-07-23T06:56:47.847Z,4.33
2017-07-23T06:59:15.295Z,4.40
2017-07-23T07:01:42.706Z,4.30
2017-07-23T07:04:10.156Z,3.63
2017-07-23T07:06:37.594Z,4.17
2017-07-23T07:09:05.019Z,4.23
2017-07-23T07:11:32.439Z,4.53
2017-07-23T07:13:59.877Z,4.10
2017-07-23T07:16:27.301Z,4.40
2017-07-23T07:18:55.127Z,4.13
2017-07-23T07:21:22.543Z,4.03
2017-07-23T07:23:50.000Z,4.20
2017-07-23T07:26:17.457Z,4.40
2017-07-23T07:28:44.875Z,3.67
2017-07-23T07:31:12.388Z,3.87
2017-07-23T07:33:40.548Z,3.93
2017-07-23T07:36:08.051Z,4.40
2017-07-23T07:38:35.541Z,4.20
2017-07-23T07:41:03.040Z,4.20
2017-07-23T07:43:30.454Z,3.90
2017-07-23T07:45:57.851Z,4.17
2017-07-23T07:48:25.316Z,4.37
2017-07-23T07:50:52.726Z,4.03
2017-07-23T07:53:20.166Z,3.80
2017-07-23T07:55:47.572Z,4.37
2017-07-23T07:58:15.027Z,4.13
2017-07-23T08:00:42.664Z,4.30
2017-07-23T08:03:10.207Z,4.30
2017-07-23T08:05:37.664Z,3.70
2017-07-23T08:08:05.112Z,3.97
2017-07-23T08:10:33.068Z,4.07
2017-07-23T08:13:00.599Z,3.73
2017-07-23T08:15:28.147Z,3.60
2017-07-23T08:17:55.556Z,3.93
2017-07-23T08:20:23.006Z,4.00
2017-07-23T08:22:50.419Z,3.40
2017-07-23T08:25:19.500Z,3.47
2017-07-23T08:27:47.031Z,3.17
2017-07-23T08:30:14.433Z,3.30
2017-07-23T08:32:41.868Z,2.63
2017-07-23T08:35:09.336Z,3.33
2017-07-23T08:37:36.788Z,3.47
2017-07-23T08:40:04.251Z,2.80
2017-07-23T08:42:31.728Z,2.87
2017-07-23T08:44:59.182Z,3.50
2017-07-23T08:47:26.669Z,2.53
2017-07-23T08:49:54.099Z,3.27
2017-07-23T08:52:21.551Z,2.70
2017-07-23T08:54:49.066Z,3.53
2017-07-23T08:57:16.572Z,3.03
2017-07-23T08:59:44.171Z,3.30
2017-07-23T09:02:12.115Z,3.13
2017-07-23T09:04:39.558Z,3.20
2017-07-23T09:07:06.979Z,3.03
2017-07-23T09:09:34.428Z,2.93
2017-07-23T09:12:01.900Z,2.77
2017-07-23T09:14:29.324Z,2.90
2017-07-23T09:16:56.804Z,3.10
2017-07-23T09:19:24.200Z,2.80
2017-07-23T09:21:51.626Z,2.60
2017-07-23T09:24:19.035Z,3.17
2017-07-23T09:26:46.497Z,3.10
2017-07-23T09:29:13.962Z,2.97
2017-07-23T09:31:42.281Z,3.00
2017-07-23T09:34:09.795Z,2.43
2017-07-23T09:36:37.216Z,2.80
2017-07-23T09:39:04.690Z,2.80
2017-07-23T09:41:32.138Z,2.80
2017-07-23T09:43:59.666Z,2.30
2017-07-23T09:46:27.102Z,2.90
2017-07-23T09:48:54.573Z,2.40
2017-07-23T09:51:21.987Z,2.50
2017-07-23T09:53:49.489Z,2.70
2017-07-23T09:56:17.009Z,2.50
2017-07-23T09:58:44.536Z,3.10
2017-07-23T10:01:12.054Z,2.03
2017-07-23T10:03:39.476Z,2.50
2017-07-23T10:06:07.099Z,2.43
2017-07-23T10:08:34.559Z,2.57
2017-07-23T10:11:02.035Z,2.40
2017-07-23T10:13:29.605Z,3.50
2017-07-23T10:15:57.103Z,2.57
2017-07-23T10:18:24.542Z,2.67
2017-07-23T10:20:51.957Z,2.80
2017-07-23T10:23:19.453Z,2.63
2017-07-23T10:25:46.898Z,2.67
2017-07-23T10:28:14.364Z,2.90
2017-07-23T10:30:42.161Z,2.57
2017-07-23T10:33:09.591Z,2.30
2017-07-23T10:35:37.042Z,2.47
2017-07-23T10:38:04.511Z,3.03
2017-07-23T10:40:31.988Z,2.20
2017-07-23T10:42:59.484Z,2.90
2017-07-23T10:45:26.903Z,2.57
2017-07-23T10:47:54.354Z,2.73
2017-07-23T10:50:21.804Z,2.73
2017-07-23T10:52:49.243Z,6.97
2017-07-23T10:55:16.717Z,2.30
2017-07-23T10:57:44.133Z,9.23
2017-07-23T11:00:11.554Z,2.43
2017-07-23T11:02:39.000Z,2.47
2017-07-23T11:05:06.425Z,2.80
2017-07-23T11:07:34.023Z,3.00
2017-07-23T11:10:01.619Z,3.70
2017-07-23T11:12:29.229Z,3.80
2017-07-23T11:14:56.763Z,3.30
2017-07-23T11:17:24.215Z,2.30
2017-07-23T11:19:51.641Z,3.30
2017-07-23T11:22:19.078Z,2.80
2017-07-23T11:24:46.573Z,2.70
2017-07-23T11:27:14.027Z,2.50
2017-07-23T11:29:41.563Z,2.73
2017-07-23T11:32:09.144Z,2.47
2017-07-23T11:34:36.542Z,2.10
2017-07-23T11:37:04.201Z,2.53
2017-07-23T11:39:31.636Z,2.43
2017-07-23T11:41:59.113Z,2.07
2017-07-23T11:44:26.771Z,2.00
2017-07-23T11:46:54.199Z,2.70
2017-07-23T11:49:21.656Z,2.30
2017-07-23T11:51:49.079Z,2.53
2017-07-23T11:54:16.551Z,2.40
2017-07-23T11:56:44.024Z,2.73
2017-07-23T11:59:11.451Z,2.40
2017-07-23T12:01:38.868Z,2.30
2017-07-23T12:04:06.320Z,2.80
2017-07-23T12:06:33.741Z,2.40
2017-07-23T12:09:01.180Z,2.43
2017-07-23T12:11:28.591Z,2.20
2017-07-23T12:13:56.045Z,2.20
2017-07-23T12:16:23.604Z,2.07
2017-07-23T12:18:51.057Z,2.20
2017-07-23T12:21:18.643Z,2.07
2017-07-23T12:23:46.115Z,2.50
2017-07-23T12:26:13.731Z,2.27
2017-07-23T12:28:41.350Z,2.83
2017-07-23T12:31:08.775Z,2.10
2017-07-23T12:33:36.289Z,2.30
2017-07-23T12:36:03.978Z,2.50
2017-07-23T12:38:31.408Z,2.57
2017-07-23T12:40:58.854Z,4.60
2017-07-23T12:43:26.375Z,2.87
2017-07-23T12:45:53.823Z,2.47
2017-07-23T12:48:21.351Z,2.60
2017-07-23T12:50:48.909Z,2.90
2017-07-23T12:53:16.343Z,2.33
2017-07-23T12:55:44.373Z,2.10
2017-07-23T12:58:11.833Z,2.87
2017-07-23T13:00:39.417Z,2.13
2017-07-23T13:03:06.869Z,2.50
2017-07-23T13:05:34.327Z,2.70
2017-07-23T13:08:02.066Z,2.20
2017-07-23T13:10:29.516Z,2.40
2017-07-23T13:12:57.165Z,2.27
2017-07-23T13:15:24.675Z,2.03
2017-07-23T13:17:52.327Z,2.37
2017-07-23T13:20:19.878Z,2.40
2017-07-23T13:22:47.307Z,2.27
2017-07-23T13:25:14.765Z,2.50
2017-07-23T13:27:42.217Z,3.33
2017-07-23T13:30:09.615Z,3.10
2017-07-23T13:32:37.046Z,2.73
2017-07-23T13:35:04.446Z,2.50
2017-07-23T13:37:31.904Z,2.50
2017-07-23T13:39:59.320Z,2.60
2017-07-23T13:42:26.785Z,2.20
2017-07-23T13:44:54.241Z,2.23
2017-07-23T13:47:21.667Z,2.30
2017-07-23T13:49:49.151Z,3.00
2017-07-23T13:52:17.472Z,2.30
2017-07-23T13:54:44.927Z,2.30
2017-07-23T13:57:12.349Z,2.57
2017-07-23T13:59:39.894Z,2.23
2017-07-23T14:02:07.346Z,2.53
2017-07-23T14:04:34.839Z,2.47
2017-07-23T14:07:02.339Z,2.50
2017-07-23T14:09:29.817Z,2.40
2017-07-23T14:11:57.241Z,2.20
2017-07-23T14:14:24.695Z,2.37
2017-07-23T14:16:52.114Z,2.47
2017-07-23T14:19:19.559Z,2.50
2017-07-23T14:21:46.975Z,2.27
2017-07-23T14:24:14.567Z,2.60
2017-07-23T14:26:42.115Z,2.30
2017-07-23T14:29:09.535Z,2.43
2017-07-23T14:31:36.979Z,2.30
2017-07-23T14:34:05.285Z,3.40
2017-07-23T14:39:06.677Z,2.50
2017-07-23T14:41:34.111Z,2.60
2017-07-23T14:44:01.561Z,2.67
2017-07-23T14:46:28.993Z,2.27
2017-07-23T14:48:56.447Z,2.13
2017-07-23T14:51:23.866Z,2.27
2017-07-23T14:53:51.296Z,2.70
2017-07-23T14:56:18.740Z,3.20
2017-07-23T14:58:46.185Z,2.00
2017-07-23T15:01:13.651Z,2.20
2017-07-23T15:03:41.096Z,2.60
2017-07-23T15:06:08.529Z,2.23
2017-07-23T15:08:35.996Z,2.40
2017-07-23T15:11:03.401Z,2.47
2017-07-23T15:13:30.875Z,2.53
2017-07-23T15:15:58.346Z,2.37
2017-07-23T15:18:25.756Z,2.27
2017-07-23T15:20:53.228Z,2.53
2017-07-23T15:23:20.666Z,2.50
2017-07-23T15:25:48.098Z,2.70
2017-07-23T15:28:15.507Z,3.07
2017-07-23T15:30:43.025Z,2.30
2017-07-23T15:33:10.490Z,2.70
2017-07-23T15:35:37.946Z,2.43
2017-07-23T15:38:05.414Z,2.53
2017-07-23T15:40:32.864Z,2.60
2017-07-23T15:43:00.296Z,2.27
2017-07-23T15:45:27.718Z,2.40
2017-07-23T15:47:55.148Z,2.80
2017-07-23T15:50:22.573Z,2.23
2017-07-23T15:52:50.051Z,2.93
2017-07-23T15:55:17.469Z,2.50
2017-07-23T15:57:44.886Z,2.70
2017-07-23T16:00:12.311Z,2.63
2017-07-23T16:02:39.726Z,2.73
2017-07-23T16:05:07.225Z,2.37
2017-07-23T16:07:34.659Z,2.57
2017-07-23T16:10:02.075Z,2.50
2017-07-23T16:12:29.560Z,2.50
2017-07-23T16:14:56.972Z,3.03
2017-07-23T16:17:24.417Z,2.70
2017-07-23T16:19:51.906Z,2.70
2017-07-23T16:22:19.328Z,2.70
2017-07-23T16:24:46.766Z,2.80
2017-07-23T16:27:14.237Z,2.50
2017-07-23T16:29:41.683Z,2.53
2017-07-23T16:32:09.108Z,3.20
2017-07-23T16:34:36.521Z,2.60
2017-07-23T16:37:03.964Z,2.50
2017-07-23T16:39:31.399Z,2.47
2017-07-23T16:41:58.821Z,3.00
2017-07-23T16:44:26.295Z,2.50
2017-07-23T16:46:53.728Z,2.27
2017-07-23T16:49:21.169Z,2.63
2017-07-23T16:51:48.636Z,2.90
2017-07-23T16:54:16.122Z,3.13
2017-07-23T16:56:43.525Z,2.63
2017-07-23T16:59:10.980Z,2.40
2017-07-23T17:01:38.635Z,2.60
2017-07-23T17:04:06.098Z,2.40
2017-07-23T17:06:33.529Z,2.80
2017-07-23T17:09:00.981Z,2.50
2017-07-23T17:11:28.461Z,1.77
2017-07-23T17:13:55.924Z,2.50
2017-07-23T17:16:23.415Z,2.00
2017-07-23T17:18:50.887Z,3.00
2017-07-23T17:21:18.482Z,3.27
2017-07-23T17:23:45.971Z,3.27
2017-07-23T17:26:13.518Z,4.37
2017-07-23T17:28:41.010Z,4.30
2017-07-23T17:31:08.447Z,4.33
2017-07-23T17:33:35.962Z,4.87
2017-07-23T17:36:03.397Z,3.43
2017-07-23T17:38:30.916Z,2.90
2017-07-23T17:40:58.463Z,4.97
2017-07-23T17:43:25.910Z,2.20
2017-07-23T17:45:53.316Z,2.10
2017-07-23T17:48:20.797Z,2.20
2017-07-23T17:50:48.270Z,2.20
2017-07-23T17:53:15.717Z,2.20
2017-07-23T17:55:43.173Z,1.97
2017-07-23T17:58:10.676Z,2.00
2017-07-23T18:00:38.199Z,2.07
2017-07-23T18:03:05.620Z,2.00
2017-07-23T18:05:33.102Z,2.00
2017-07-23T18:08:00.619Z,2.50
2017-07-23T18:10:28.029Z,2.10
2017-07-23T18:12:55.639Z,2.13
2017-07-23T18:15:23.088Z,2.40
2017-07-23T18:17:50.570Z,2.00
2017-07-23T18:20:18.004Z,5.77
2017-07-23T18:22:45.471Z,1.73
2017-07-23T18:25:12.982Z,2.00
2017-07-23T18:27:40.507Z,1.90
2017-07-23T18:30:08.083Z,2.00
2017-07-23T18:32:35.498Z,3.70
2017-07-23T18:35:02.916Z,1.90
2017-07-23T18:37:30.396Z,1.90
2017-07-23T18:39:57.843Z,2.33
2017-07-23T18:42:25.376Z,2.30
2017-07-23T18:44:52.901Z,2.03
2017-07-23T18:47:20.418Z,2.30
2017-07-23T18:49:47.879Z,2.20
2017-07-23T18:52:15.457Z,2.07
2017-07-23T18:54:42.936Z,2.27
2017-07-23T18:57:10.450Z,2.30
2017-07-23T18:59:37.989Z,2.20
2017-07-23T19:02:06.349Z,1.87
2017-07-23T19:04:33.791Z,2.00
2017-07-23T19:07:01.290Z,2.80
2017-07-23T19:09:28.696Z,2.13
2017-07-23T19:11:56.188Z,2.47
2017-07-23T19:14:23.692Z,2.40
2017-07-23T19:16:51.214Z,2.13
2017-07-23T19:19:18.630Z,2.10
2017-07-23T19:21:46.232Z,1.90
2017-07-23T19:24:13.680Z,1.90
2017-07-23T19:26:41.093Z,2.17
2017-07-23T19:29:08.535Z,2.30
2017-07-23T19:31:35.964Z,2.30
2017-07-23T19:34:03.489Z,2.30
2017-07-23T19:36:30.916Z,2.43
2017-07-23T19:38:58.396Z,2.10
2017-07-23T19:41:25.834Z,2.43
2017-07-23T19:43:53.294Z,3.00
2017-07-23T19:46:20.726Z,3.00
2017-07-23T19:48:48.144Z,2.80
2017-07-23T19:51:15.661Z,2.50
2017-07-23T19:53:43.310Z,2.57
2017-07-23T19:56:10.842Z,2.70
2017-07-23T19:58:38.436Z,3.07
2017-07-23T20:01:05.841Z,3.00
2017-07-23T20:03:33.350Z,2.67
2017-07-23T20:06:01.809Z,3.80
2017-07-23T20:08:29.241Z,2.90
2017-07-23T20:10:56.686Z,3.60
2017-07-23T20:13:24.094Z,4.00
2017-07-23T20:15:51.551Z,4.20
2017-07-23T20:18:18.972Z,3.57
2017-07-23T20:20:46.453Z,3.60
2017-07-23T20:23:14.042Z,3.50
2017-07-23T20:25:41.493Z,3.73
2017-07-23T20:28:08.912Z,3.30
2017-07-23T20:30:36.366Z,3.50
2017-07-23T20:33:03.816Z,2.90
2017-07-23T20:35:31.285Z,3.30
2017-07-23T20:37:58.696Z,3.00
2017-07-23T20:40:26.161Z,2.60
2017-07-23T20:42:53.595Z,3.20
2017-07-23T20:45:21.000Z,2.80
2017-07-23T20:47:48.469Z,3.20
2017-07-23T20:50:15.907Z,3.10
2017-07-23T20:52:43.337Z,2.93
2017-07-23T20:55:10.852Z,4.20
2017-07-23T20:57:38.347Z,3.43
2017-07-23T21:00:05.906Z,3.23
2017-07-23T21:02:33.318Z,3.13
2017-07-23T21:05:00.813Z,3.73
2017-07-23T21:07:28.238Z,4.87
2017-07-23T21:09:55.645Z,4.60
2017-07-23T21:12:23.136Z,4.63
2017-07-23T21:14:50.595Z,3.57
2017-07-23T21:17:18.097Z,4.10
2017-07-23T21:19:45.528Z,3.17
2017-07-23T21:22:12.980Z,3.67
2017-07-23T21:24:40.398Z,3.83
2017-07-23T21:27:07.819Z,3.27
2017-07-23T21:29:35.283Z,3.80
2017-07-23T21:32:02.676Z,4.10
2017-07-23T21:34:30.299Z,5.00
2017-07-23T21:36:57.846Z,5.10
2017-07-23T21:39:25.291Z,7.30
2017-07-23T21:41:52.697Z,3.10
2017-07-23T21:44:20.185Z,3.33
2017-07-23T21:46:47.615Z,2.90
2017-07-23T21:49:15.046Z,3.40
2017-07-23T21:51:42.486Z,2.83
2017-07-23T21:54:09.988Z,3.43
2017-07-23T21:56:37.560Z,2.93
2017-07-23T21:59:04.982Z,2.63
2017-07-23T22:01:32.387Z,2.80
2017-07-23T22:03:59.841Z,3.10
2017-07-23T22:06:27.285Z,2.60
2017-07-23T22:08:54.720Z,3.03
2017-07-23T22:11:22.136Z,3.50
2017-07-23T22:13:49.731Z,3.40
2017-07-23T22:16:17.124Z,3.27
2017-07-23T22:18:44.525Z,3.87
2017-07-23T22:21:11.989Z,3.20
2017-07-23T22:23:39.397Z,3.27
2017-07-23T22:26:06.835Z,3.57
2017-07-23T22:28:34.259Z,3.00
2017-07-23T22:31:01.677Z,3.57
2017-07-23T22:33:29.145Z,3.30
2017-07-23T22:35:56.557Z,3.17
2017-07-23T22:38:23.992Z,3.07
2017-07-23T22:40:51.404Z,3.50
2017-07-23T22:43:18.840Z,3.03
2017-07-23T22:45:46.363Z,2.83
2017-07-23T22:48:13.832Z,2.80
2017-07-23T22:50:42.282Z,2.80
2017-07-23T22:53:09.704Z,2.80
2017-07-23T22:55:37.283Z,2.80
2017-07-23T22:58:04.715Z,2.67
2017-07-23T23:00:32.124Z,2.60
2017-07-23T23:02:59.562Z,3.13
2017-07-23T23:05:27.029Z,2.53
2017-07-23T23:07:54.472Z,3.00
2017-07-23T23:10:21.903Z,2.97
2017-07-23T23:12:49.348Z,2.83
2017-07-23T23:15:16.768Z,2.90
2017-07-23T23:17:44.182Z,2.80
2017-07-23T23:20:11.623Z,2.83
2017-07-23T23:22:39.028Z,2.97
2017-07-23T23:25:06.436Z,3.37
2017-07-23T23:27:33.862Z,2.90
2017-07-23T23:30:01.280Z,2.73
2017-07-23T23:32:28.772Z,2.90
2017-07-23T23:34:56.195Z,3.23
2017-07-23T23:37:23.599Z,3.50
2017-07-23T23:39:51.032Z,2.90
2017-07-23T23:42:18.464Z,3.00
2017-07-23T23:44:45.903Z,3.40
2017-07-23T23:47:13.335Z,3.70
2017-07-23T23:49:40.764Z,3.40
2017-07-23T23:52:08.192Z,3.50
2017-07-23T23:54:35.583Z,3.23
2017-07-23T23:57:03.034Z,2.80
2017-07-23T23:59:30.461Z,3.23
